Time;durP1;ratioP1;P1;durP2;ratioP2;P2;SDS_P1;SDS_P2;PMS_P1;PMS_P2;Temp;Humidity;BMP_temperature;BMP_pressure;BME280_temperature;BME280_humidity;BME280_pressure;Samples;Min_cycle;Max_cycle;Signal;HPM_P1;HPM_P2
2024/01/16 00:04:47;;;;;;;7.50;6.33;;;;;;;2.45;43.80;99292.31;10466249;28;20235;-73
2024/01/16 00:09:52;;;;;;;10.53;6.93;;;;;;;0.65;45.33;99556.78;10465371;28;20239;-72
2024/01/16 00:14:54;;;;;;;7.43;6.67;;;;;;;2.41;44.22;99233.69;10460488;28;21055;-73
2024/01/16 00:19:55;;;;;;;8.17;6.20;;;;;;;3.65;42.25;99230.59;10465405;28;20595;-73
2024/01/16 00:24:57;;;;;;;10.13;6.13;;;;;;;2.93;42.88;99343.38;10459802;28;20238;-73
2024/01/16 00:29:59;;;;;;;8.33;6.37;;;;;;;2.68;43.06;99398.50;10456076;28;20751;-72
2024/01/16 00:35:00;;;;;;;8.33;6.87;;;;;;;1.90;44.84;99262.16;10470364;28;20326;-72
2024/01/16 00:40:04;;;;;;;9.83;6.53;;;;;;;1.42;43.99;99574.13;10461262;28;20254;-72
2024/01/16 00:45:06;;;;;;;7.10;5.97;;;;;;;1.19;44.68;99589.25;10463959;28;20278;-72
2024/01/16 00:50:09;;;;;;;8.33;6.50;;;;;;;2.06;43.75;99409.38;10460951;28;20239;-73
2024/01/16 00:55:10;;;;;;;7.50;6.63;;;;;;;2.40;43.20;99400.19;10461665;28;20227;-73
2024/01/16 01:00:12;;;;;;;18.80;6.80;;;;;;;2.44;43.72;99343.50;10457169;28;20367;-72
2024/01/16 01:05:14;;;;;;;7.70;6.47;;;;;;;2.63;43.31;99359.28;10463617;28;20365;-72
2024/01/16 01:10:16;;;;;;;9.80;6.43;;;;;;;2.63;43.11;99369.84;10464006;28;20304;-72
2024/01/16 01:15:18;;;;;;;8.43;6.40;;;;;;;2.97;42.83;99318.31;10460258;28;20419;-72
2024/01/16 01:20:19;;;;;;;9.30;5.87;;;;;;;2.09;43.32;99546.38;10461051;28;20259;-72
2024/01/16 01:25:21;;;;;;;7.10;6.07;;;;;;;2.44;43.51;99420.91;10457459;28;20725;-73
2024/01/16 01:30:23;;;;;;;9.37;6.70;;;;;;;2.61;43.81;99368.34;10454878;28;20239;-72
2024/01/16 01:35:25;;;;;;;9.70;6.20;;;;;;;2.15;43.76;99487.75;10466998;28;20374;-72
2024/01/16 01:40:27;;;;;;;9.27;6.60;;;;;;;1.64;44.04;99603.97;10453062;28;20695;-73
2024/01/16 01:45:28;;;;;;;9.50;7.13;;;;;;;2.13;43.82;99467.72;10460504;28;20547;-73
2024/01/16 01:50:30;;;;;;;10.27;6.53;;;;;;;1.88;43.15;99622.16;10453781;28;20235;-72
2024/01/16 01:55:32;;;;;;;10.20;6.77;;;;;;;1.52;44.11;99593.50;10464288;28;20268;-73
2024/01/16 02:00:34;;;;;;;7.03;5.63;;;;;;;1.76;44.39;99465.75;10461022;28;20231;-72
2024/01/16 02:05:38;;;;;;;6.90;5.87;;;;;;;1.72;43.60;99561.94;10450558;28;20593;-72
2024/01/16 02:10:47;;;;;;;9.10;6.03;;;;;;;2.02;43.58;99479.25;10459744;28;20278;-73
2024/01/16 02:15:50;;;;;;;8.27;6.60;;;;;;;2.30;42.91;99490.00;10463756;28;20659;-72
2024/01/16 02:20:51;;;;;;;9.30;6.77;;;;;;;2.15;43.70;99413.84;10464136;28;20231;-73
2024/01/16 02:25:54;;;;;;;9.10;6.93;;;;;;;2.15;43.20;99439.41;10462573;28;20237;-72
2024/01/16 02:30:56;;;;;;;10.77;6.20;;;;;;;2.46;42.82;99416.31;10462683;28;20560;-73
2024/01/16 02:35:58;;;;;;;7.60;5.83;;;;;;;1.74;43.67;99494.03;10460350;28;20273;-72
2024/01/16 02:41:00;;;;;;;7.07;5.97;;;;;;;2.09;43.18;99445.25;10455028;28;20259;-72
2024/01/16 02:46:01;;;;;;;8.73;6.50;;;;;;;2.17;42.82;99480.53;10457068;28;20287;-73
2024/01/16 02:51:04;;;;;;;7.47;6.20;;;;;;;1.91;43.19;99476.72;10450006;28;20224;-72
2024/01/16 02:56:05;;;;;;;7.30;5.37;;;;;;;3.14;41.65;99356.38;10458220;28;20302;-72
2024/01/16 03:01:07;;;;;;;8.27;6.43;;;;;;;2.73;41.81;99465.78;10459481;28;20713;-72
2024/01/16 03:06:09;;;;;;;9.33;6.17;;;;;;;1.91;42.59;99603.41;10454368;28;20239;-72
2024/01/16 03:11:11;;;;;;;10.83;6.30;;;;;;;1.79;43.78;99333.53;10462614;28;20259;-73
2024/01/16 03:16:13;;;;;;;10.40;6.27;;;;;;;1.97;42.86;99487.56;10463371;28;20240;-72
2024/01/16 03:21:15;;;;;;;10.97;6.30;;;;;;;2.39;42.53;99427.59;10461201;28;20238;-72
2024/01/16 03:26:16;;;;;;;6.60;5.87;;;;;;;1.90;43.65;99356.34;10460780;28;20326;-73
2024/01/16 03:31:21;;;;;;;10.53;6.67;;;;;;;1.55;44.33;99307.56;10453769;28;20701;-72
2024/01/16 03:36:23;;;;;;;10.50;5.93;;;;;;;-1.17;47.33;99694.25;10454400;28;20599;-72
2024/01/16 03:41:24;;;;;;;8.60;6.37;;;;;;;2.17;43.27;99264.06;10447289;28;20236;-72
2024/01/16 03:46:26;;;;;;;6.80;6.17;;;;;;;-0.90;46.29;99707.19;10464752;28;20236;-72
2024/01/16 03:51:28;;;;;;;7.47;6.10;;;;;;;-1.13;46.93;99632.69;10458117;28;20698;-72
2024/01/16 03:56:29;;;;;;;8.50;6.83;;;;;;;-0.28;45.45;99593.06;10457955;28;20288;-72
2024/01/16 04:01:33;;;;;;;6.97;6.27;;;;;;;-0.81;46.70;99572.50;10451408;28;20231;-73
2024/01/16 04:06:34;;;;;;;8.00;6.37;;;;;;;-0.21;46.24;99396.16;10447612;28;20794;-72
2024/01/16 04:11:36;;;;;;;7.30;5.67;;;;;;;-1.33;47.90;99542.22;10458973;28;20240;-71
2024/01/16 04:16:38;;;;;;;10.53;6.73;;;;;;;0.08;45.49;99359.56;10458292;28;20600;-72
2024/01/16 04:21:39;;;;;;;5.97;5.47;;;;;;;-0.66;47.39;99354.16;10466602;28;20243;-72
2024/01/16 04:26:41;;;;;;;9.87;7.73;;;;;;;0.33;45.40;99269.88;10469084;28;20253;-72
2024/01/16 04:31:43;;;;;;;8.30;7.40;;;;;;;0.31;45.87;99244.50;10460438;28;20325;-72
2024/01/16 04:36:45;;;;;;;8.63;6.70;;;;;;;0.18;46.26;99219.34;10470163;28;20713;-71
2024/01/16 04:41:46;;;;;;;9.10;7.27;;;;;;;1.39;43.88;99216.66;10460491;28;20724;-71
2024/01/16 04:46:48;;;;;;;8.03;6.87;;;;;;;1.17;44.17;99232.69;10468727;28;20271;-71
2024/01/16 04:51:50;;;;;;;12.50;7.93;;;;;;;-0.26;46.79;99282.63;10460734;28;20234;-70
2024/01/16 04:56:51;;;;;;;8.40;7.60;;;;;;;-0.12;46.18;99292.00;10462145;28;20697;-71
2024/01/16 05:01:53;;;;;;;9.43;6.13;;;;;;;-1.06;47.39;99417.69;10458931;28;20242;-71
2024/01/16 05:06:55;;;;;;;10.27;7.27;;;;;;;-0.41;45.24;99462.66;10463680;28;20312;-71
2024/01/16 05:11:56;;;;;;;9.50;7.60;;;;;;;0.02;45.80;99240.84;10457566;28;20242;-71
2024/01/16 05:16:58;;;;;;;10.70;7.57;;;;;;;-0.06;45.93;99228.38;10456864;28;20242;-71
2024/01/16 05:21:59;;;;;;;9.27;7.20;;;;;;;-1.08;47.29;99420.44;10465485;28;20321;-71
2024/01/16 05:27:01;;;;;;;8.93;7.07;;;;;;;-1.49;46.88;99583.69;10459621;28;20269;-71
2024/01/16 05:32:04;;;;;;;11.83;8.73;;;;;;;1.61;43.28;99165.41;10464417;28;20315;-70
2024/01/16 05:37:05;;;;;;;9.73;6.50;;;;;;;1.90;42.18;99209.38;10459661;28;20329;-71
2024/01/16 05:42:07;;;;;;;9.90;7.93;;;;;;;0.53;44.48;99289.19;10462006;28;20294;-71
2024/01/16 05:47:09;;;;;;;9.80;8.03;;;;;;;1.03;43.88;99253.22;10455126;28;20755;-70
2024/01/16 05:52:11;;;;;;;13.90;8.77;;;;;;;1.98;42.54;99171.75;10456559;28;20243;-71
2024/01/16 05:57:12;;;;;;;13.13;9.20;;;;;;;2.09;42.23;99210.31;10456995;28;20235;-71
2024/01/16 06:02:14;;;;;;;10.10;8.13;;;;;;;-0.68;45.86;99485.69;10454099;28;20439;-71
2024/01/16 06:07:16;;;;;;;10.87;7.87;;;;;;;0.83;43.65;99333.13;10461070;28;20325;-70
2024/01/16 06:12:18;;;;;;;20.63;13.40;;;;;;;1.94;41.32;99440.34;10451597;28;20663;-71
2024/01/16 06:17:19;;;;;;;12.83;10.03;;;;;;;2.41;41.36;99243.44;10463678;28;20223;-71
2024/01/16 06:22:21;;;;;;;13.77;9.17;;;;;;;2.59;41.52;99214.44;10446952;28;20289;-71
2024/01/16 06:27:23;;;;;;;15.60;8.63;;;;;;;2.24;41.74;99317.13;10467928;28;20270;-71
2024/01/16 06:32:24;;;;;;;10.47;8.50;;;;;;;0.06;43.94;99631.69;10456226;28;20231;-70
2024/01/16 06:37:27;;;;;;;10.13;8.33;;;;;;;0.85;42.88;99511.19;10461084;28;20330;-71
2024/01/16 06:42:28;;;;;;;11.33;7.40;;;;;;;-0.72;45.67;99599.88;10461139;28;20322;-71
2024/01/16 06:47:30;;;;;;;11.57;8.63;;;;;;;2.16;42.47;99221.97;10457179;28;20323;-71
2024/01/16 06:52:32;;;;;;;13.90;9.33;;;;;;;1.93;41.97;99313.84;10455899;28;20345;-71
2024/01/16 06:57:34;;;;;;;11.30;8.53;;;;;;;-0.73;44.83;99581.59;10451842;28;20241;-71
2024/01/16 07:02:36;;;;;;;11.73;8.53;;;;;;;1.99;41.69;99297.41;10452767;28;20246;-71
2024/01/16 07:07:38;;;;;;;14.37;9.50;;;;;;;1.82;41.13;99465.19;10456094;28;20582;-71
2024/01/16 07:12:39;;;;;;;13.40;9.87;;;;;;;1.09;42.71;99451.28;10453884;28;20743;-71
2024/01/16 07:17:41;;;;;;;12.63;9.10;;;;;;;-0.93;45.95;99596.22;10453770;28;20307;-71
2024/01/16 07:22:43;;;;;;;16.60;9.80;;;;;;;-0.59;44.98;99615.53;10457207;28;20559;-71
2024/01/16 07:27:48;;;;;;;13.23;9.77;;;;;;;0.87;44.46;99266.88;10450742;28;20731;-71
2024/01/16 07:32:51;;;;;;;28.90;18.37;;;;;;;0.20;44.10;99523.53;10455289;28;20231;-71
2024/01/16 07:37:53;;;;;;;19.37;12.67;;;;;;;1.92;42.15;99299.78;10450493;28;20622;-71
2024/01/16 07:42:54;;;;;;;16.43;12.37;;;;;;;1.38;42.59;99418.00;10461230;28;20319;-71
2024/01/16 07:47:56;;;;;;;18.23;11.07;;;;;;;1.69;42.40;99323.00;10464711;28;20334;-71
2024/01/16 07:52:58;;;;;;;16.43;11.97;;;;;;;1.23;44.13;99330.50;10463869;28;20285;-71
2024/01/16 07:57:59;;;;;;;13.17;9.43;;;;;;;2.14;41.56;99358.53;10455881;28;20326;-71
2024/01/16 08:03:01;;;;;;;14.63;10.83;;;;;;;1.96;42.20;99319.66;10465407;28;20235;-70
2024/01/16 08:08:04;;;;;;;39.67;25.00;;;;;;;1.82;41.92;99417.69;10465195;28;20240;-71
2024/01/16 08:13:06;;;;;;;18.80;14.93;;;;;;;2.25;41.72;99355.75;10462848;28;20259;-70
2024/01/16 08:18:08;;;;;;;20.80;16.30;;;;;;;1.64;42.83;99432.50;10458531;28;20716;-70
2024/01/16 08:23:09;;;;;;;22.30;17.33;;;;;;;1.06;42.81;99558.63;10470460;28;20249;-71
2024/01/16 08:28:11;;;;;;;16.90;13.13;;;;;;;2.22;42.19;99276.00;10463553;28;20215;-70
2024/01/16 08:33:13;;;;;;;27.47;17.60;;;;;;;1.94;42.68;99286.47;10465248;28;20307;-71
2024/01/16 08:38:15;;;;;;;26.50;18.30;;;;;;;1.21;43.12;99495.03;10458806;28;20345;-71
2024/01/16 08:43:16;;;;;;;22.77;16.80;;;;;;;2.15;42.21;99374.25;10461594;28;20293;-71
2024/01/16 08:48:18;;;;;;;20.67;13.90;;;;;;;1.78;43.37;99316.06;10462806;28;20718;-71
2024/01/16 08:53:23;;;;;;;16.40;12.07;;;;;;;1.85;42.74;99438.53;10464117;28;20243;-71
2024/01/16 08:58:25;;;;;;;17.63;11.60;;;;;;;2.08;42.98;99330.06;10450695;28;20234;-71
2024/01/16 09:03:26;;;;;;;19.60;11.33;;;;;;;1.50;43.94;99355.44;10464670;28;20238;-70
2024/01/16 09:08:28;;;;;;;16.83;11.77;;;;;;;1.49;43.58;99374.88;10462911;28;20684;-71
2024/01/16 09:13:29;;;;;;;16.20;11.60;;;;;;;1.02;44.17;99462.34;10467378;28;20294;-71
2024/01/16 09:18:31;;;;;;;16.57;11.37;;;;;;;1.49;43.54;99425.00;10458604;28;20233;-71
2024/01/16 09:23:33;;;;;;;21.73;13.67;;;;;;;1.39;43.79;99411.75;10471412;28;20265;-70
2024/01/16 09:28:35;;;;;;;24.90;17.17;;;;;;;2.16;42.35;99404.97;10466015;28;20231;-71
2024/01/16 09:33:36;;;;;;;18.63;11.53;;;;;;;2.61;41.77;99326.09;10464867;28;20683;-71
2024/01/16 09:38:38;;;;;;;17.20;10.40;;;;;;;3.47;40.73;99257.06;10458293;28;20244;-71
2024/01/16 09:43:41;;;;;;;14.30;11.07;;;;;;;3.11;41.28;99336.34;10465353;28;20247;-71
2024/01/16 09:48:45;;;;;;;22.33;13.70;;;;;;;1.29;43.23;99563.78;10456991;28;20227;-71
2024/01/16 09:53:47;;;;;;;16.40;10.80;;;;;;;0.58;44.34;99627.56;10460099;28;20231;-71
2024/01/16 09:58:54;;;;;;;16.97;10.37;;;;;;;2.80;41.97;99318.06;10451015;28;20495;-70
2024/01/16 10:03:56;;;;;;;14.90;11.17;;;;;;;3.40;41.71;99198.63;10466610;28;20227;-70
2024/01/16 10:08:58;;;;;;;13.70;9.73;;;;;;;2.72;40.98;99508.22;10460702;28;20235;-71
2024/01/16 10:14:01;;;;;;;11.80;10.07;;;;;;;2.43;41.85;99447.47;10461038;28;20235;-71
2024/01/16 10:19:05;;;;;;;13.57;9.63;;;;;;;4.05;39.99;99292.78;10450114;28;20231;-71
2024/01/16 10:24:13;;;;;;;17.67;11.83;;;;;;;4.64;39.43;99281.59;10470165;28;20309;-71
2024/01/16 10:29:15;;;;;;;13.33;9.50;;;;;;;3.23;41.28;99372.19;10454713;28;20231;-71
2024/01/16 10:34:23;;;;;;;13.97;9.10;;;;;;;4.05;40.43;99263.66;10465803;28;20594;-71
2024/01/16 10:39:25;;;;;;;13.53;10.57;;;;;;;3.77;40.68;99350.28;10453687;28;20305;-71
2024/01/16 10:44:55;;;;;;;13.47;10.40;;;;;;;4.70;39.16;99251.81;10457564;28;20255;-71
2024/01/16 10:49:57;;;;;;;13.37;10.80;;;;;;;2.44;41.80;99492.22;10457510;28;20227;-71
2024/01/16 10:55:03;;;;;;;14.77;11.93;;;;;;;3.47;40.59;99405.19;10460090;28;20258;-71
2024/01/16 11:00:08;;;;;;;13.57;10.73;;;;;;;5.27;38.76;99285.66;10452999;28;20234;-71
2024/01/16 11:06:19;;;;;;;19.57;11.83;;;;;;;2.36;43.17;99313.34;10468039;27;20372;-71
2024/01/16 11:11:22;;;;;;;16.30;11.47;;;;;;;2.76;42.47;99364.28;10379418;28;20236;-71
2024/01/16 11:16:24;;;;;;;13.97;10.80;;;;;;;2.93;41.33;99393.63;10374351;28;20534;-71
2024/01/16 11:21:26;;;;;;;14.13;9.70;;;;;;;3.46;40.93;99272.13;10372178;28;20237;-71
2024/01/16 11:26:30;;;;;;;11.50;8.83;;;;;;;3.49;41.22;99188.13;10374761;28;20230;-71
2024/01/16 11:31:34;;;;;;;12.90;9.27;;;;;;;3.63;41.38;99294.25;10373296;28;20237;-71
2024/01/16 11:36:54;;;;;;;12.90;8.83;;;;;;;2.09;42.18;99455.78;10376738;28;20242;-71
2024/01/16 11:41:58;;;;;;;12.53;7.63;;;;;;;2.56;41.56;99463.88;10366464;28;20229;-71
2024/01/16 11:47:02;;;;;;;12.40;8.30;;;;;;;4.72;39.11;99188.88;10378645;28;20248;-71
2024/01/16 11:52:04;;;;;;;12.20;8.80;;;;;;;3.27;40.21;99310.06;10366194;28;20235;-71
2024/01/16 11:57:36;;;;;;;10.27;8.73;;;;;;;4.38;39.53;99267.38;10369614;28;20245;-71
2024/01/16 12:02:56;;;;;;;8.90;6.97;;;;;;;3.93;39.67;99289.53;10372775;28;20242;-71
2024/01/16 12:07:58;;;;;;;11.87;7.57;;;;;;;2.95;40.38;99342.25;10370406;28;20301;-71
2024/01/16 12:13:00;;;;;;;10.07;8.17;;;;;;;4.50;38.96;99203.53;10368669;28;20241;-71
2024/01/16 12:18:05;;;;;;;10.93;7.77;;;;;;;3.52;40.76;99243.38;10330347;28;20262;-71
2024/01/16 12:23:13;;;;;;;11.67;8.07;;;;;;;3.16;40.05;99421.34;10348680;28;20327;-71
2024/01/16 12:28:19;;;;;;;12.30;8.47;;;;;;;3.14;40.36;99423.28;10341203;28;20207;-71
2024/01/16 12:33:33;;;;;;;10.60;8.60;;;;;;;4.76;39.89;99176.94;10342777;28;20701;-71
2024/01/16 12:38:35;;;;;;;11.27;7.63;;;;;;;3.98;39.57;99286.44;10341148;28;20633;-71
2024/01/16 12:43:37;;;;;;;13.93;9.00;;;;;;;4.61;39.50;99207.69;10344477;28;20354;-71
2024/01/16 12:48:39;;;;;;;12.33;9.27;;;;;;;1.25;44.08;99348.81;10340550;28;20302;-71
2024/01/16 12:54:17;;;;;;;11.73;9.27;;;;;;;3.00;42.41;99170.81;10341094;28;20653;-71
2024/01/16 12:59:19;;;;;;;12.43;9.23;;;;;;;4.88;39.72;99158.91;10336075;28;20234;-71
2024/01/16 13:04:21;;;;;;;13.50;9.87;;;;;;;5.12;39.39;99115.72;10342479;28;20462;-71
2024/01/16 13:09:23;;;;;;;13.00;8.40;;;;;;;3.89;39.45;99342.97;10336143;28;20229;-71
2024/01/16 13:14:25;;;;;;;12.30;9.17;;;;;;;4.62;39.37;99183.69;10347315;28;20302;-71
2024/01/16 13:19:29;;;;;;;12.57;8.80;;;;;;;4.57;39.81;99106.50;10345704;28;20338;-71
2024/01/16 13:24:30;;;;;;;13.43;8.37;;;;;;;4.51;39.61;99112.47;10338180;28;20235;-71
2024/01/16 13:29:35;;;;;;;12.00;9.50;;;;;;;5.04;38.69;99243.81;10343840;28;20247;-71
2024/01/16 13:34:38;;;;;;;12.37;9.00;;;;;;;5.50;38.11;99187.66;10340587;28;20240;-71
2024/01/16 13:39:40;;;;;;;13.93;8.67;;;;;;;6.06;38.10;99039.91;10337031;28;20294;-71
2024/01/16 13:44:41;;;;;;;11.80;8.80;;;;;;;4.45;39.01;99306.50;10359941;28;20242;-71
2024/01/16 13:49:44;;;;;;;10.00;7.20;;;;;;;4.49;38.57;99236.31;10389742;28;20308;-71
2024/01/16 13:54:46;;;;;;;14.40;8.33;;;;;;;5.31;37.96;99170.25;10391326;28;20290;-71
2024/01/16 13:59:48;;;;;;;10.03;6.97;;;;;;;5.33;37.65;99190.34;10385973;28;20320;-71
2024/01/16 14:04:50;;;;;;;11.00;8.27;;;;;;;4.23;39.42;99286.63;10369779;28;20231;-71
2024/01/16 14:09:52;;;;;;;9.57;7.27;;;;;;;5.69;37.98;99106.91;10339442;28;20655;-71
2024/01/16 14:14:53;;;;;;;12.73;8.70;;;;;;;4.57;39.18;99290.16;10343706;28;21409;-71
2024/01/16 14:19:55;;;;;;;11.47;8.40;;;;;;;3.42;39.69;99412.75;10338735;28;20239;-71
2024/01/16 14:24:57;;;;;;;11.80;8.57;;;;;;;4.65;39.18;99101.22;10345048;28;20302;-72
2024/01/16 14:29:58;;;;;;;11.33;8.43;;;;;;;5.44;37.98;99146.72;10334559;28;20243;-71
2024/01/16 14:35:00;;;;;;;12.30;8.33;;;;;;;3.47;39.39;99381.41;10336117;28;20240;-71
2024/01/16 14:40:08;;;;;;;14.27;8.20;;;;;;;2.41;41.40;99334.03;10360039;28;20239;-71
2024/01/16 14:45:11;;;;;;;11.63;8.20;;;;;;;2.34;41.82;99188.53;10384840;28;20245;-71
2024/01/16 14:50:16;;;;;;;13.77;7.70;;;;;;;2.56;41.45;99143.41;10386269;28;20623;-70
2024/01/16 14:55:20;;;;;;;21.20;8.67;;;;;;;2.70;41.35;99106.75;10388528;28;20758;-70
2024/01/16 15:00:26;;;;;;;9.80;7.47;;;;;;;2.65;41.22;99145.16;10384818;28;20235;-72
2024/01/16 15:05:28;;;;;;;14.40;8.13;;;;;;;2.86;40.62;99131.69;10389803;28;20238;-72
2024/01/16 15:10:30;;;;;;;9.53;6.63;;;;;;;4.69;38.39;98953.31;10387520;28;20285;-69
2024/01/16 15:15:32;;;;;;;11.03;6.93;;;;;;;4.74;37.55;99206.28;10388900;28;20253;-73
2024/01/16 15:20:34;;;;;;;9.93;6.60;;;;;;;4.84;37.63;99145.16;10386715;28;20345;-71
2024/01/16 15:25:35;;;;;;;7.57;6.77;;;;;;;4.75;37.52;99160.22;10361204;28;20245;-71
2024/01/16 15:30:37;;;;;;;7.93;6.83;;;;;;;5.39;36.81;99055.34;10351923;28;20929;-71
2024/01/16 15:35:39;;;;;;;8.10;6.77;;;;;;;3.73;38.40;99293.34;10342107;28;20242;-70
2024/01/16 15:40:40;;;;;;;12.33;9.23;;;;;;;5.49;36.59;99164.78;10338067;28;20246;-71
2024/01/16 15:45:42;;;;;;;13.57;8.33;;;;;;;6.02;36.35;99061.66;10339995;28;20236;-71
2024/01/16 15:50:44;;;;;;;13.20;8.33;;;;;;;5.37;37.09;99171.41;10342651;28;20249;-70
2024/01/16 15:55:46;;;;;;;12.83;10.33;;;;;;;6.03;36.42;99082.75;10346523;28;20240;-72
2024/01/16 16:00:48;;;;;;;14.20;10.77;;;;;;;5.78;36.04;99190.84;10345037;28;20334;-72
2024/01/16 16:05:49;;;;;;;12.27;10.20;;;;;;;6.10;35.54;99154.59;10343735;28;20627;-70
2024/01/16 16:10:51;;;;;;;13.20;9.03;;;;;;;4.43;38.46;99215.75;10348379;28;20879;-71
2024/01/16 16:15:54;;;;;;;13.30;10.90;;;;;;;3.41;39.59;99315.84;10340879;28;20359;-71
2024/01/16 16:20:55;;;;;;;12.50;9.60;;;;;;;4.31;38.25;99112.69;10342525;28;20664;-70
2024/01/16 16:25:57;;;;;;;13.93;9.77;;;;;;;5.38;36.60;99101.44;10344046;28;20254;-71
2024/01/16 16:30:59;;;;;;;13.40;10.13;;;;;;;4.20;37.89;99258.63;10340742;28;20245;-71
2024/01/16 16:36:01;;;;;;;11.00;8.73;;;;;;;5.10;37.04;99078.75;10342960;28;20231;-72
2024/01/16 16:41:03;;;;;;;12.00;9.77;;;;;;;5.21;36.77;99106.75;10346150;28;20281;-73
2024/01/16 16:46:04;;;;;;;14.93;10.77;;;;;;;4.54;37.98;99143.91;10340300;28;20327;-76
2024/01/16 16:51:07;;;;;;;12.27;10.60;;;;;;;4.30;37.39;99336.16;10339443;28;20231;-71
2024/01/16 16:56:11;;;;;;;14.80;12.17;;;;;;;4.59;37.75;99160.16;10350708;28;20235;-74
2024/01/16 17:01:17;;;;;;;27.33;19.93;;;;;;;4.00;38.10;99257.97;10342122;28;20261;-71
2024/01/16 17:06:19;;;;;;;16.03;13.60;;;;;;;4.01;38.40;99087.56;10339693;28;20243;-72
2024/01/16 17:11:21;;;;;;;15.77;10.73;;;;;;;4.65;37.29;99061.47;10344354;28;20612;-70
2024/01/16 17:16:24;;;;;;;10.23;8.13;;;;;;;4.67;36.88;99114.31;10345185;28;20265;-73
2024/01/16 17:21:26;;;;;;;9.80;8.30;;;;;;;4.99;36.47;99046.41;10336773;28;20243;-74
2024/01/16 17:26:27;;;;;;;10.90;9.57;;;;;;;4.57;36.30;99181.50;10334755;28;20242;-70
2024/01/16 17:31:32;;;;;;;10.50;7.53;;;;;;;5.22;35.38;99124.31;10335072;28;20234;-74
2024/01/16 17:36:38;;;;;;;10.60;7.87;;;;;;;5.25;35.40;99141.72;10335653;28;20294;-71
2024/01/16 17:41:40;;;;;;;13.40;11.60;;;;;;;5.01;35.85;99175.19;10326072;28;20253;-73
2024/01/16 17:46:43;;;;;;;13.27;8.73;;;;;;;5.38;35.57;99057.16;10333863;28;20241;-73
2024/01/16 17:51:46;;;;;;;12.37;10.47;;;;;;;3.60;36.99;99305.16;10319763;28;20273;-73
2024/01/16 17:56:48;;;;;;;17.97;14.53;;;;;;;1.56;39.99;99253.84;10329917;28;20238;-73
2024/01/16 18:01:50;;;;;;;18.77;14.70;;;;;;;1.45;40.49;99135.31;10331961;28;20602;-71
2024/01/16 18:06:52;;;;;;;16.53;11.43;;;;;;;2.54;39.00;98927.78;10340994;28;20237;-73
2024/01/16 18:11:55;;;;;;;15.23;11.70;;;;;;;4.37;37.13;98868.38;10333188;28;20230;-70
2024/01/16 18:16:57;;;;;;;10.63;9.53;;;;;;;3.12;37.49;99062.22;10329622;28;20230;-73
2024/01/16 18:22:05;;;;;;;11.87;9.47;;;;;;;3.27;38.13;99023.66;10327088;28;20257;-73
2024/01/16 18:27:07;;;;;;;11.93;9.17;;;;;;;4.46;36.71;98886.88;10333264;28;20329;-74
2024/01/16 18:32:09;;;;;;;111.10;65.07;;;;;;;3.15;38.42;98912.03;10331058;28;20238;-73
2024/01/16 18:37:11;;;;;;;66.13;38.73;;;;;;;2.75;38.89;99003.25;10332464;28;20906;-72
2024/01/16 18:42:12;;;;;;;26.67;19.43;;;;;;;3.13;38.65;98981.94;10332806;28;20261;-72
2024/01/16 18:47:15;;;;;;;24.73;16.23;;;;;;;3.80;37.87;98841.81;10331186;28;20369;-73
2024/01/16 18:52:17;;;;;;;24.70;16.20;;;;;;;4.39;37.10;98821.34;10325802;28;20509;-73
2024/01/16 18:57:19;;;;;;;24.83;15.13;;;;;;;4.71;36.64;98916.84;10331431;28;20226;-72
2024/01/16 19:02:24;;;;;;;22.23;16.63;;;;;;;4.05;37.45;99019.22;10331562;28;20335;-73
2024/01/16 19:07:27;;;;;;;16.63;12.90;;;;;;;3.14;39.58;98907.72;10329931;28;20923;-73
2024/01/16 19:12:28;;;;;;;15.00;12.20;;;;;;;1.84;42.08;98819.47;10461789;28;20241;-73
2024/01/16 19:17:30;;;;;;;23.97;14.83;;;;;;;2.57;41.36;98715.38;10470219;28;20880;-72
2024/01/16 19:22:32;;;;;;;24.17;18.97;;;;;;;3.33;39.13;98750.66;10462132;28;20235;-72
2024/01/16 19:27:34;;;;;;;25.53;19.87;;;;;;;3.46;39.00;98782.75;10478720;28;20734;-72
2024/01/16 19:32:36;;;;;;;22.17;15.77;;;;;;;4.05;38.13;98752.66;10478401;28;20376;-72
2024/01/16 19:37:39;;;;;;;21.43;14.80;;;;;;;4.24;37.28;98783.25;10458690;28;20250;-73
2024/01/16 19:42:41;;;;;;;21.57;13.30;;;;;;;3.43;38.45;98901.28;10478702;28;20711;-72
2024/01/16 19:47:43;;;;;;;16.70;13.80;;;;;;;3.88;38.28;98775.66;10469592;28;20778;-73
2024/01/16 19:52:46;;;;;;;21.17;13.37;;;;;;;4.18;37.77;98790.03;10460224;28;20586;-71
2024/01/16 19:57:48;;;;;;;14.97;11.50;;;;;;;3.26;38.21;98977.88;10475233;28;20235;-69
2024/01/16 20:02:49;;;;;;;11.70;10.40;;;;;;;2.73;39.41;98831.66;10465350;28;20251;-70
2024/01/16 20:07:51;;;;;;;14.53;11.20;;;;;;;3.47;38.87;98696.28;10475015;28;23086;-70
2024/01/16 20:12:53;;;;;;;11.93;9.23;;;;;;;3.65;38.00;98717.28;10471998;28;20736;-71
2024/01/16 20:17:56;;;;;;;11.30;8.80;;;;;;;3.43;38.73;98759.25;10476238;28;20255;-71
2024/01/16 20:22:58;;;;;;;12.43;9.03;;;;;;;3.68;38.07;98739.94;10481025;28;20250;-74
2024/01/16 20:28:03;;;;;;;11.47;8.57;;;;;;;3.94;37.68;98734.47;10454420;28;20239;-75
2024/01/16 20:33:05;;;;;;;14.13;10.20;;;;;;;1.73;40.92;98912.84;10456088;28;20223;-73
2024/01/16 20:38:07;;;;;;;10.90;8.80;;;;;;;3.58;38.27;98711.84;10475689;28;20698;-72
2024/01/16 20:43:08;;;;;;;12.67;9.93;;;;;;;2.99;38.82;98836.13;10474275;28;20506;-71
2024/01/16 20:48:11;;;;;;;10.23;9.20;;;;;;;2.96;39.22;98774.84;10470288;28;20207;-73
2024/01/16 20:53:12;;;;;;;12.17;9.70;;;;;;;2.93;39.31;98741.63;10470823;28;20215;-73
2024/01/16 20:58:14;;;;;;;14.67;8.83;;;;;;;3.30;38.43;98713.94;10474917;28;20231;-73
2024/01/16 21:03:20;;;;;;;12.43;8.83;;;;;;;3.03;38.49;98770.56;10460409;28;20242;-73
2024/01/16 21:08:21;;;;;;;11.53;9.30;;;;;;;3.11;38.10;98770.59;10448976;28;20282;-70
2024/01/16 21:13:26;;;;;;;12.83;10.07;;;;;;;3.20;38.26;98764.34;10443410;28;20317;-73
2024/01/16 21:18:30;;;;;;;21.07;15.40;;;;;;;2.26;39.20;98898.00;10449469;28;20242;-75
2024/01/16 21:23:32;;;;;;;19.73;12.93;;;;;;;1.96;39.88;98830.63;10451483;28;20243;-76
2024/01/16 21:28:35;;;;;;;13.73;10.10;;;;;;;3.21;38.34;98606.50;10424975;28;20729;-75
2024/01/16 21:33:37;;;;;;;11.17;8.90;;;;;;;3.90;37.36;98606.94;10424557;28;20290;-72
2024/01/16 21:38:40;;;;;;;12.67;8.80;;;;;;;3.67;38.04;98635.94;10435702;28;20240;-72
2024/01/16 21:43:42;;;;;;;14.73;10.50;;;;;;;1.65;39.38;98925.94;10438982;28;20243;-74
2024/01/16 21:48:44;;;;;;;12.00;9.67;;;;;;;1.71;40.37;98687.97;10435728;28;20627;-74
2024/01/16 21:53:46;;;;;;;13.17;9.90;;;;;;;2.85;38.33;98646.44;10418983;28;20258;-74
2024/01/16 21:58:48;;;;;;;13.13;10.20;;;;;;;2.27;39.50;98669.19;10436089;28;20736;-74
2024/01/16 22:03:50;;;;;;;13.97;10.20;;;;;;;0.64;41.73;98776.44;10442262;28;20235;-74
2024/01/16 22:08:53;;;;;;;11.57;7.97;;;;;;;2.29;39.04;98659.28;10444152;28;20324;-74
2024/01/16 22:13:54;;;;;;;12.17;9.50;;;;;;;-0.01;42.46;98863.16;10424172;28;20246;-75
2024/01/16 22:18:56;;;;;;;11.77;9.70;;;;;;;0.46;42.38;98715.84;10440032;28;20593;-73
2024/01/16 22:23:59;;;;;;;23.13;17.93;;;;;;;-0.09;42.97;98721.00;10451470;28;20228;-72
2024/01/16 22:29:00;;;;;;;12.30;9.53;;;;;;;2.09;39.83;98524.91;10438568;28;20236;-72
2024/01/16 22:34:02;;;;;;;16.17;10.50;;;;;;;-1.11;43.45;98784.38;10427432;28;20238;-70
2024/01/16 22:39:04;;;;;;;15.43;10.20;;;;;;;0.45;41.83;98452.78;10432162;28;20256;-72
2024/01/16 22:44:06;;;;;;;16.10;9.87;;;;;;;0.90;41.19;98404.41;10442418;28;20407;-73
2024/01/16 22:49:10;;;;;;;16.00;10.33;;;;;;;-0.62;42.64;98638.13;10418606;28;20764;-72
2024/01/16 22:54:12;;;;;;;16.60;10.50;;;;;;;0.80;41.02;98432.66;10442906;28;20238;-72
2024/01/16 22:59:13;;;;;;;22.00;14.20;;;;;;;0.33;41.23;98549.53;10419617;28;20284;-71
2024/01/16 23:04:16;;;;;;;47.80;28.07;;;;;;;1.18;39.91;98420.00;10453367;28;20706;-72
2024/01/16 23:09:18;;;;;;;36.53;23.40;;;;;;;2.19;38.78;98382.25;10466599;28;20284;-72
2024/01/16 23:14:20;;;;;;;37.03;21.00;;;;;;;1.58;39.37;98509.06;10461914;28;20277;-71
2024/01/16 23:19:22;;;;;;;26.40;19.27;;;;;;;0.18;40.60;98717.59;10466067;28;20319;-72
2024/01/16 23:24:24;;;;;;;19.70;13.63;;;;;;;1.95;39.60;98301.28;10459843;28;20249;-71
2024/01/16 23:29:25;;;;;;;13.57;9.97;;;;;;;-0.61;43.47;98613.53;10464566;28;20524;-73